KZR992 UAAA-UACC
Flight info
| Callsign | KZR992 |
|---|---|
| Flight time | 1h 25m |
| Altitude | 40000 |
| Route | ETEDA1B ETEDA W333 BANOS BANOS1G |
| Aircraft | B763/H-SDE3FGHIM3RWXY/LB1 |
Departure
| Time | 2026-04-23 16:56 |
|---|---|
| Airport | Almaty International Airport (UAAA) |
Arrival
| Time | 2026-04-23 18:22 |
|---|---|
| Airport | Nursultan Nazarbayev International Airport (UACC) |
| Time | Latitude | Longitude | Altitude | Speed | Heading |
|---|---|---|---|---|---|
| 2026-04-23 16:28 | 43.34873 | 77.01719 | 2221 ft | 0 kts | 184° |
| 2026-04-23 16:47 | 43.34865 | 77.01718 | 2221 ft | 4 kts | 184° |
| 2026-04-23 16:47 | 43.34823 | 77.01720 | 2222 ft | 5 kts | 160° |
| 2026-04-23 16:48 | 43.34808 | 77.01757 | 2222 ft | 4 kts | 96° |
| 2026-04-23 16:48 | 43.34803 | 77.01842 | 2222 ft | 13 kts | 94° |
| 2026-04-23 16:48 | 43.34797 | 77.01972 | 2223 ft | 19 kts | 94° |
| 2026-04-23 16:49 | 43.34788 | 77.02145 | 2223 ft | 25 kts | 93° |
| 2026-04-23 16:49 | 43.34780 | 77.02341 | 2226 ft | 18 kts | 94° |
| 2026-04-23 16:50 | 43.34776 | 77.02422 | 2226 ft | 21 kts | 94° |
| 2026-04-23 16:50 | 43.34776 | 77.02557 | 2226 ft | 25 kts | 80° |
| 2026-04-23 16:50 | 43.34873 | 77.02803 | 2225 ft | 32 kts | 54° |
| 2026-04-23 16:51 | 43.35021 | 77.03082 | 2223 ft | 39 kts | 58° |
| 2026-04-23 16:51 | 43.35175 | 77.03416 | 2227 ft | 44 kts | 55° |
| 2026-04-23 16:51 | 43.35219 | 77.03500 | 2228 ft | 45 kts | 55° |
| 2026-04-23 16:52 | 43.35393 | 77.03848 | 2231 ft | 49 kts | 57° |
| 2026-04-23 16:52 | 43.35598 | 77.04259 | 2234 ft | 49 kts | 57° |
| 2026-04-23 16:52 | 43.35765 | 77.04600 | 2234 ft | 40 kts | 56° |
| 2026-04-23 16:52 | 43.35917 | 77.04907 | 2235 ft | 39 kts | 56° |
| 2026-04-23 16:53 | 43.36071 | 77.05218 | 2235 ft | 39 kts | 56° |
| 2026-04-23 16:53 | 43.36220 | 77.05519 | 2238 ft | 37 kts | 56° |
| 2026-04-23 16:53 | 43.36368 | 77.05819 | 2238 ft | 37 kts | 57° |
| 2026-04-23 16:53 | 43.36481 | 77.06050 | 2240 ft | 12 kts | 57° |
| 2026-04-23 16:54 | 43.36482 | 77.06149 | 2242 ft | 9 kts | 131° |
| 2026-04-23 16:54 | 43.36426 | 77.06195 | 2244 ft | 8 kts | 163° |
| 2026-04-23 16:54 | 43.36368 | 77.06194 | 2245 ft | 8 kts | 190° |
| 2026-04-23 16:54 | 43.36313 | 77.06158 | 2246 ft | 10 kts | 217° |
| 2026-04-23 16:55 | 43.36286 | 77.06115 | 2246 ft | 0 kts | 236° |
| 2026-04-23 16:55 | 43.36286 | 77.06113 | 2246 ft | 1 kts | 236° |
| 2026-04-23 16:55 | 43.36271 | 77.06083 | 2245 ft | 5 kts | 236° |
| 2026-04-23 16:56 | 43.36242 | 77.06024 | 2245 ft | 11 kts | 236° |
| 2026-04-23 16:56 | 43.36042 | 77.05619 | 2242 ft | 101 kts | 236° |
| 2026-04-23 16:56 | 43.35471 | 77.04468 | 2361 ft | 183 kts | 237° |
| 2026-04-23 16:56 | 43.34748 | 77.02993 | 3628 ft | 188 kts | 237° |
| 2026-04-23 16:57 | 43.34050 | 77.01541 | 4222 ft | 200 kts | 241° |
| 2026-04-23 16:57 | 43.33271 | 76.99789 | 4515 ft | 227 kts | 238° |
| 2026-04-23 16:57 | 43.32354 | 76.97842 | 4796 ft | 260 kts | 238° |
| 2026-04-23 16:57 | 43.31356 | 76.95717 | 5655 ft | 268 kts | 243° |
| 2026-04-23 16:58 | 43.30837 | 76.93271 | 6358 ft | 279 kts | 271° |
| 2026-04-23 16:58 | 43.31260 | 76.90730 | 7352 ft | 278 kts | 300° |
| 2026-04-23 16:58 | 43.32511 | 76.88760 | 8341 ft | 279 kts | 327° |
| 2026-04-23 16:58 | 43.34277 | 76.87690 | 9337 ft | 280 kts | 341° |
| 2026-04-23 16:59 | 43.36109 | 76.86754 | 10172 ft | 290 kts | 338° |
| 2026-04-23 16:59 | 43.38028 | 76.85672 | 10251 ft | 300 kts | 338° |
| 2026-04-23 16:59 | 43.39766 | 76.84661 | 10191 ft | 288 kts | 337° |
| 2026-04-23 16:59 | 43.41536 | 76.83615 | 10238 ft | 280 kts | 337° |
| 2026-04-23 17:00 | 43.43377 | 76.82521 | 10216 ft | 300 kts | 336° |
| 2026-04-23 17:00 | 43.45215 | 76.80969 | 10512 ft | 329 kts | 318° |
| 2026-04-23 17:00 | 43.46648 | 76.78502 | 11501 ft | 335 kts | 301° |
| 2026-04-23 17:00 | 43.47545 | 76.75526 | 12579 ft | 340 kts | 291° |
| 2026-04-23 17:01 | 43.48380 | 76.72549 | 13744 ft | 339 kts | 293° |
| 2026-04-23 17:01 | 43.49389 | 76.69604 | 14579 ft | 346 kts | 303° |
| 2026-04-23 17:01 | 43.50983 | 76.67094 | 15347 ft | 355 kts | 319° |
| 2026-04-23 17:01 | 43.53119 | 76.65255 | 16097 ft | 367 kts | 335° |
| 2026-04-23 17:02 | 43.55608 | 76.64292 | 16832 ft | 380 kts | 351° |
| 2026-04-23 17:02 | 43.58290 | 76.64294 | 17578 ft | 392 kts | 6° |
| 2026-04-23 17:02 | 43.60934 | 76.65267 | 18368 ft | 401 kts | 19° |
| 2026-04-23 17:02 | 43.63561 | 76.66621 | 19161 ft | 407 kts | 15° |
| 2026-04-23 17:03 | 43.66358 | 76.67329 | 19955 ft | 409 kts | 0° |
| 2026-04-23 17:03 | 43.69178 | 76.67324 | 20761 ft | 411 kts | 354° |
| 2026-04-23 17:03 | 43.72030 | 76.67013 | 21483 ft | 417 kts | 350° |
| 2026-04-23 17:03 | 43.74916 | 76.66540 | 22289 ft | 420 kts | 349° |
| 2026-04-23 17:04 | 43.77829 | 76.65985 | 22981 ft | 426 kts | 348° |
| 2026-04-23 17:04 | 43.80768 | 76.65382 | 23665 ft | 430 kts | 347° |
| 2026-04-23 17:04 | 43.83740 | 76.64746 | 24263 ft | 436 kts | 346° |
| 2026-04-23 17:04 | 43.86749 | 76.64088 | 24891 ft | 441 kts | 346° |
| 2026-04-23 17:05 | 43.89808 | 76.63412 | 25416 ft | 448 kts | 345° |
| 2026-04-23 17:05 | 43.92913 | 76.62724 | 26036 ft | 451 kts | 345° |
| 2026-04-23 17:05 | 43.96027 | 76.62033 | 26612 ft | 456 kts | 345° |
| 2026-04-23 17:05 | 43.99159 | 76.61332 | 27098 ft | 461 kts | 344° |
| 2026-04-23 17:06 | 44.02350 | 76.60619 | 27596 ft | 466 kts | 344° |
| 2026-04-23 17:06 | 44.05348 | 76.59950 | 28100 ft | 470 kts | 343° |
| 2026-04-23 17:06 | 44.07453 | 76.59479 | 28374 ft | 473 kts | 343° |
| 2026-04-23 17:06 | 44.10749 | 76.58742 | 28980 ft | 475 kts | 343° |
| 2026-04-23 17:07 | 44.14033 | 76.58003 | 29439 ft | 478 kts | 342° |
| 2026-04-23 17:07 | 44.17322 | 76.57263 | 29845 ft | 483 kts | 342° |
| 2026-04-23 17:07 | 44.20602 | 76.56525 | 30303 ft | 485 kts | 342° |
| 2026-04-23 17:07 | 44.23951 | 76.55769 | 30672 ft | 490 kts | 342° |
| 2026-04-23 17:08 | 44.27330 | 76.55009 | 31181 ft | 491 kts | 342° |
| 2026-04-23 17:08 | 44.30764 | 76.54230 | 31495 ft | 496 kts | 342° |
| 2026-04-23 17:08 | 44.34060 | 76.53189 | 32039 ft | 485 kts | 334° |
| 2026-04-23 17:08 | 44.37232 | 76.51543 | 32208 ft | 484 kts | 328° |
| 2026-04-23 17:09 | 44.40313 | 76.49786 | 32908 ft | 479 kts | 328° |
| 2026-04-23 17:09 | 44.43407 | 76.48000 | 33331 ft | 480 kts | 328° |
| 2026-04-23 17:09 | 44.46495 | 76.46207 | 33828 ft | 479 kts | 328° |
| 2026-04-23 17:09 | 44.49538 | 76.44433 | 34285 ft | 478 kts | 328° |
| 2026-04-23 17:10 | 44.52598 | 76.42644 | 34798 ft | 474 kts | 327° |
| 2026-04-23 17:10 | 44.55648 | 76.40854 | 35118 ft | 475 kts | 328° |
| 2026-04-23 17:10 | 44.58684 | 76.39072 | 35640 ft | 471 kts | 328° |
| 2026-04-23 17:10 | 44.61666 | 76.37322 | 36182 ft | 467 kts | 327° |
| 2026-04-23 17:11 | 44.64685 | 76.35541 | 36479 ft | 468 kts | 328° |
| 2026-04-23 17:11 | 44.67674 | 76.33782 | 37033 ft | 466 kts | 327° |
| 2026-04-23 17:11 | 44.70647 | 76.32027 | 37540 ft | 463 kts | 327° |
| 2026-04-23 17:11 | 44.73638 | 76.30257 | 37825 ft | 465 kts | 327° |
| 2026-04-23 17:12 | 44.76603 | 76.28505 | 38305 ft | 462 kts | 327° |
| 2026-04-23 17:12 | 44.79546 | 76.26765 | 38706 ft | 461 kts | 327° |
| 2026-04-23 17:12 | 44.82498 | 76.25015 | 39118 ft | 457 kts | 327° |
| 2026-04-23 17:12 | 44.85402 | 76.23291 | 39352 ft | 458 kts | 327° |
| 2026-04-23 17:13 | 44.88335 | 76.21550 | 39626 ft | 456 kts | 327° |
| 2026-04-23 17:13 | 44.91277 | 76.19797 | 39713 ft | 458 kts | 328° |
| 2026-04-23 17:13 | 44.94220 | 76.18047 | 39867 ft | 456 kts | 328° |
| 2026-04-23 17:13 | 44.97140 | 76.16309 | 39905 ft | 453 kts | 327° |
| 2026-04-23 17:14 | 45.02940 | 76.12843 | 39917 ft | 458 kts | 328° |
| 2026-04-23 17:14 | 45.08824 | 76.09324 | 39907 ft | 459 kts | 328° |
| 2026-04-23 17:15 | 45.14695 | 76.05806 | 39892 ft | 457 kts | 328° |
| 2026-04-23 17:15 | 45.20532 | 76.02296 | 39895 ft | 458 kts | 328° |
| 2026-04-23 17:16 | 45.26434 | 75.98740 | 39898 ft | 461 kts | 328° |
| 2026-04-23 17:16 | 45.32330 | 75.95183 | 39900 ft | 461 kts | 328° |
| 2026-04-23 17:17 | 45.38235 | 75.91612 | 39890 ft | 458 kts | 328° |
| 2026-04-23 17:17 | 45.44111 | 75.88047 | 39890 ft | 458 kts | 328° |
| 2026-04-23 17:18 | 45.52949 | 75.82672 | 39893 ft | 460 kts | 328° |
| 2026-04-23 17:19 | 45.58783 | 75.79115 | 39895 ft | 459 kts | 328° |
| 2026-04-23 17:19 | 45.64310 | 75.75736 | 39898 ft | 462 kts | 329° |
| 2026-04-23 17:20 | 45.70051 | 75.72220 | 39893 ft | 461 kts | 329° |
| 2026-04-23 17:21 | 45.81795 | 75.65009 | 40041 ft | 456 kts | 329° |
| 2026-04-23 17:21 | 45.90580 | 75.59588 | 40050 ft | 460 kts | 329° |
| 2026-04-23 17:22 | 45.99369 | 75.54150 | 40040 ft | 460 kts | 329° |
| 2026-04-23 17:23 | 46.08250 | 75.48636 | 40045 ft | 461 kts | 329° |
| 2026-04-23 17:24 | 46.16989 | 75.43189 | 40032 ft | 461 kts | 329° |
| 2026-04-23 17:24 | 46.25803 | 75.37696 | 40032 ft | 462 kts | 329° |
| 2026-04-23 17:25 | 46.34705 | 75.32159 | 40047 ft | 464 kts | 329° |
| 2026-04-23 17:26 | 46.46630 | 75.24709 | 40045 ft | 469 kts | 329° |
| 2026-04-23 17:27 | 46.55613 | 75.19075 | 40044 ft | 469 kts | 329° |
| 2026-04-23 17:27 | 46.61623 | 75.15293 | 40043 ft | 470 kts | 329° |
| 2026-04-23 17:28 | 46.67627 | 75.11506 | 40040 ft | 470 kts | 329° |
| 2026-04-23 17:28 | 46.73636 | 75.07707 | 40046 ft | 471 kts | 329° |
| 2026-04-23 17:29 | 46.79574 | 75.03947 | 40037 ft | 460 kts | 329° |
| 2026-04-23 17:30 | 46.88381 | 74.98353 | 40026 ft | 464 kts | 330° |
| 2026-04-23 17:30 | 46.97438 | 74.93365 | 40023 ft | 464 kts | 332° |
| 2026-04-23 17:31 | 47.03482 | 74.90033 | 40031 ft | 465 kts | 332° |
| 2026-04-23 17:31 | 47.09533 | 74.86688 | 40029 ft | 467 kts | 332° |
| 2026-04-23 17:32 | 47.15633 | 74.83308 | 40022 ft | 465 kts | 332° |
| 2026-04-23 17:32 | 47.19381 | 74.81225 | 40027 ft | 465 kts | 332° |
| 2026-04-23 17:33 | 47.24035 | 74.78636 | 40026 ft | 465 kts | 332° |
| 2026-04-23 17:33 | 47.30058 | 74.75279 | 40033 ft | 464 kts | 332° |
| 2026-04-23 17:34 | 47.36120 | 74.71889 | 40032 ft | 465 kts | 332° |
| 2026-04-23 17:35 | 47.45155 | 74.66825 | 40036 ft | 462 kts | 332° |
| 2026-04-23 17:35 | 47.54150 | 74.61763 | 40038 ft | 463 kts | 333° |
| 2026-04-23 17:36 | 47.60167 | 74.58395 | 40040 ft | 463 kts | 333° |
| 2026-04-23 17:36 | 47.66186 | 74.55018 | 40040 ft | 463 kts | 333° |
| 2026-04-23 17:37 | 47.72163 | 74.51656 | 40040 ft | 462 kts | 333° |
| 2026-04-23 17:38 | 47.81184 | 74.46566 | 40041 ft | 462 kts | 333° |
| 2026-04-23 17:38 | 47.87186 | 74.43169 | 40043 ft | 462 kts | 333° |
| 2026-04-23 17:39 | 47.93193 | 74.39760 | 40042 ft | 463 kts | 333° |
| 2026-04-23 17:39 | 47.99183 | 74.36353 | 40039 ft | 462 kts | 333° |
| 2026-04-23 17:40 | 48.05152 | 74.32950 | 40047 ft | 462 kts | 333° |
| 2026-04-23 17:40 | 48.11142 | 74.29527 | 40046 ft | 461 kts | 333° |
| 2026-04-23 17:41 | 48.17099 | 74.26142 | 40044 ft | 461 kts | 333° |
| 2026-04-23 17:41 | 48.26071 | 74.21059 | 40039 ft | 461 kts | 333° |
| 2026-04-23 17:42 | 48.35060 | 74.15947 | 40040 ft | 461 kts | 333° |
| 2026-04-23 17:43 | 48.41028 | 74.12543 | 40040 ft | 461 kts | 333° |
| 2026-04-23 17:43 | 48.47031 | 74.09109 | 40043 ft | 463 kts | 333° |
| 2026-04-23 17:44 | 48.53003 | 74.05685 | 40034 ft | 462 kts | 333° |
| 2026-04-23 17:44 | 48.62028 | 74.00494 | 40036 ft | 462 kts | 333° |
| 2026-04-23 17:45 | 48.71039 | 73.95290 | 40034 ft | 463 kts | 333° |
| 2026-04-23 17:46 | 48.80076 | 73.90052 | 40036 ft | 462 kts | 333° |
| 2026-04-23 17:46 | 48.86069 | 73.86567 | 40030 ft | 461 kts | 333° |
| 2026-04-23 17:47 | 48.91801 | 73.83225 | 40033 ft | 463 kts | 333° |
| 2026-04-23 17:48 | 49.00792 | 73.77961 | 40033 ft | 462 kts | 333° |
| 2026-04-23 17:48 | 49.06785 | 73.74430 | 40033 ft | 463 kts | 333° |
| 2026-04-23 17:49 | 49.12806 | 73.70873 | 40026 ft | 463 kts | 333° |
| 2026-04-23 17:49 | 49.18763 | 73.67345 | 40026 ft | 461 kts | 333° |
| 2026-04-23 17:50 | 49.24730 | 73.63801 | 40027 ft | 462 kts | 333° |
| 2026-04-23 17:50 | 49.33701 | 73.58456 | 40023 ft | 462 kts | 333° |
| 2026-04-23 17:51 | 49.39613 | 73.54928 | 39899 ft | 448 kts | 333° |
| 2026-04-23 17:51 | 49.45374 | 73.51470 | 38817 ft | 451 kts | 333° |
| 2026-04-23 17:52 | 49.48313 | 73.49704 | 38282 ft | 450 kts | 333° |
| 2026-04-23 17:52 | 49.53956 | 73.46318 | 37528 ft | 428 kts | 332° |
| 2026-04-23 17:52 | 49.56686 | 73.44668 | 36711 ft | 428 kts | 333° |
| 2026-04-23 17:53 | 49.62337 | 73.41804 | 35256 ft | 433 kts | 342° |
| 2026-04-23 17:53 | 49.65277 | 73.40942 | 34630 ft | 434 kts | 348° |
| 2026-04-23 17:53 | 49.68282 | 73.40417 | 33843 ft | 435 kts | 349° |
| 2026-04-23 17:54 | 49.71268 | 73.39925 | 33003 ft | 434 kts | 349° |
| 2026-04-23 17:54 | 49.74211 | 73.39421 | 32478 ft | 420 kts | 349° |
| 2026-04-23 17:54 | 49.80082 | 73.38386 | 31773 ft | 436 kts | 349° |
| 2026-04-23 17:55 | 49.85912 | 73.37083 | 30968 ft | 432 kts | 342° |
| 2026-04-23 17:55 | 49.88515 | 73.35718 | 30556 ft | 424 kts | 333° |
| 2026-04-23 17:55 | 49.90967 | 73.33667 | 30098 ft | 415 kts | 322° |
| 2026-04-23 17:56 | 49.93190 | 73.30916 | 29639 ft | 405 kts | 312° |
| 2026-04-23 17:56 | 49.96465 | 73.24343 | 28777 ft | 395 kts | 305° |
| 2026-04-23 17:56 | 49.98407 | 73.21002 | 28316 ft | 396 kts | 313° |
| 2026-04-23 17:57 | 50.00462 | 73.18122 | 27862 ft | 395 kts | 317° |
| 2026-04-23 17:57 | 50.02591 | 73.15412 | 27417 ft | 393 kts | 319° |
| 2026-04-23 17:57 | 50.06648 | 73.10562 | 26563 ft | 384 kts | 320° |
| 2026-04-23 17:58 | 50.08784 | 73.08083 | 26126 ft | 381 kts | 321° |
| 2026-04-23 17:58 | 50.10902 | 73.05649 | 25696 ft | 379 kts | 321° |
| 2026-04-23 17:58 | 50.12431 | 73.03898 | 25388 ft | 377 kts | 321° |
| 2026-04-23 17:58 | 50.14550 | 73.01477 | 24951 ft | 374 kts | 321° |
| 2026-04-23 17:59 | 50.15642 | 73.00230 | 24727 ft | 373 kts | 321° |
| 2026-04-23 17:59 | 50.17035 | 72.98641 | 24439 ft | 371 kts | 321° |
| 2026-04-23 17:59 | 50.19031 | 72.96362 | 24031 ft | 369 kts | 321° |
| 2026-04-23 18:00 | 50.21016 | 72.94096 | 23620 ft | 367 kts | 321° |
| 2026-04-23 18:00 | 50.23049 | 72.91773 | 23199 ft | 365 kts | 321° |
| 2026-04-23 18:00 | 50.25030 | 72.89507 | 22791 ft | 364 kts | 321° |
| 2026-04-23 18:00 | 50.27064 | 72.87177 | 22373 ft | 360 kts | 321° |
| 2026-04-23 18:01 | 50.29074 | 72.84873 | 21962 ft | 357 kts | 321° |
| 2026-04-23 18:01 | 50.31047 | 72.82610 | 21564 ft | 354 kts | 321° |
| 2026-04-23 18:01 | 50.33049 | 72.80310 | 21161 ft | 351 kts | 321° |
| 2026-04-23 18:01 | 50.34749 | 72.78355 | 20822 ft | 349 kts | 321° |
| 2026-04-23 18:02 | 50.36039 | 72.76871 | 20569 ft | 348 kts | 321° |
| 2026-04-23 18:02 | 50.40560 | 72.71661 | 19668 ft | 341 kts | 321° |
| 2026-04-23 18:02 | 50.42459 | 72.69469 | 19296 ft | 339 kts | 321° |
| 2026-04-23 18:03 | 50.44343 | 72.67291 | 18926 ft | 337 kts | 321° |
| 2026-04-23 18:03 | 50.46224 | 72.65115 | 18558 ft | 336 kts | 321° |
| 2026-04-23 18:03 | 50.48105 | 72.62937 | 18194 ft | 334 kts | 321° |
| 2026-04-23 18:03 | 50.49957 | 72.60790 | 17833 ft | 330 kts | 321° |
| 2026-04-23 18:04 | 50.51777 | 72.58678 | 17482 ft | 326 kts | 321° |
| 2026-04-23 18:04 | 50.53584 | 72.56580 | 17000 ft | 325 kts | 320° |
| 2026-04-23 18:04 | 50.55419 | 72.54446 | 16443 ft | 325 kts | 320° |
| 2026-04-23 18:04 | 50.57220 | 72.52349 | 15943 ft | 324 kts | 320° |
| 2026-04-23 18:05 | 50.59016 | 72.50256 | 15450 ft | 323 kts | 321° |
| 2026-04-23 18:05 | 50.60834 | 72.48138 | 14953 ft | 321 kts | 320° |
| 2026-04-23 18:05 | 50.62606 | 72.46070 | 14493 ft | 319 kts | 320° |
| 2026-04-23 18:05 | 50.64373 | 72.44006 | 14014 ft | 317 kts | 320° |
| 2026-04-23 18:06 | 50.66154 | 72.41922 | 13529 ft | 315 kts | 320° |
| 2026-04-23 18:06 | 50.67917 | 72.39859 | 13066 ft | 313 kts | 320° |
| 2026-04-23 18:06 | 50.69648 | 72.37830 | 12614 ft | 311 kts | 320° |
| 2026-04-23 18:06 | 50.71384 | 72.35793 | 12120 ft | 310 kts | 321° |
| 2026-04-23 18:07 | 50.73106 | 72.33773 | 11676 ft | 308 kts | 320° |
| 2026-04-23 18:07 | 50.74817 | 72.31763 | 11213 ft | 306 kts | 320° |
| 2026-04-23 18:07 | 50.76526 | 72.29753 | 10772 ft | 304 kts | 320° |
| 2026-04-23 18:07 | 50.78203 | 72.27779 | 10333 ft | 302 kts | 320° |
| 2026-04-23 18:08 | 50.79855 | 72.25834 | 10194 ft | 289 kts | 320° |
| 2026-04-23 18:08 | 50.81437 | 72.23971 | 10174 ft | 275 kts | 320° |
| 2026-04-23 18:08 | 50.82943 | 72.22194 | 9942 ft | 270 kts | 320° |
| 2026-04-23 18:08 | 50.84439 | 72.20423 | 9553 ft | 271 kts | 320° |
| 2026-04-23 18:09 | 50.85965 | 72.18617 | 9188 ft | 271 kts | 320° |
| 2026-04-23 18:09 | 50.87463 | 72.16848 | 8846 ft | 270 kts | 321° |
| 2026-04-23 18:09 | 50.88971 | 72.15070 | 8484 ft | 270 kts | 321° |
| 2026-04-23 18:09 | 50.90458 | 72.13312 | 8123 ft | 269 kts | 322° |
| 2026-04-23 18:10 | 50.91965 | 72.11530 | 7761 ft | 269 kts | 322° |
| 2026-04-23 18:10 | 50.93457 | 72.09762 | 7412 ft | 269 kts | 322° |
| 2026-04-23 18:10 | 50.94962 | 72.07975 | 7210 ft | 262 kts | 322° |
| 2026-04-23 18:10 | 50.96376 | 72.06297 | 7179 ft | 249 kts | 322° |
| 2026-04-23 18:11 | 50.97736 | 72.04681 | 7154 ft | 238 kts | 322° |
| 2026-04-23 18:11 | 50.99025 | 72.03148 | 7126 ft | 227 kts | 321° |
| 2026-04-23 18:11 | 51.00273 | 72.01659 | 6956 ft | 224 kts | 322° |
| 2026-04-23 18:11 | 51.01523 | 72.00168 | 6690 ft | 226 kts | 322° |
| 2026-04-23 18:12 | 51.02794 | 71.98650 | 6443 ft | 226 kts | 322° |
| 2026-04-23 18:12 | 51.04050 | 71.97150 | 6223 ft | 225 kts | 322° |
| 2026-04-23 18:12 | 51.05283 | 71.95679 | 6036 ft | 223 kts | 322° |
| 2026-04-23 18:12 | 51.06533 | 71.94184 | 5786 ft | 224 kts | 322° |
| 2026-04-23 18:13 | 51.07366 | 71.93188 | 5660 ft | 222 kts | 322° |
| 2026-04-23 18:13 | 51.09013 | 71.91217 | 5377 ft | 222 kts | 322° |
| 2026-04-23 18:13 | 51.10231 | 71.89758 | 5207 ft | 219 kts | 322° |
| 2026-04-23 18:13 | 51.11427 | 71.88323 | 5144 ft | 211 kts | 322° |
| 2026-04-23 18:14 | 51.12598 | 71.86920 | 4957 ft | 210 kts | 322° |
| 2026-04-23 18:14 | 51.13762 | 71.85523 | 4767 ft | 210 kts | 321° |
| 2026-04-23 18:14 | 51.14928 | 71.84122 | 4576 ft | 209 kts | 321° |
| 2026-04-23 18:14 | 51.16102 | 71.82710 | 4388 ft | 208 kts | 321° |
| 2026-04-23 18:15 | 51.17263 | 71.81314 | 4183 ft | 208 kts | 321° |
| 2026-04-23 18:15 | 51.18410 | 71.79934 | 4011 ft | 207 kts | 321° |
| 2026-04-23 18:15 | 51.19541 | 71.78526 | 3974 ft | 201 kts | 312° |
| 2026-04-23 18:15 | 51.19627 | 71.78390 | 3971 ft | 200 kts | 309° |
| 2026-04-23 18:16 | 51.19905 | 71.74779 | 3949 ft | 175 kts | 236° |
| 2026-04-23 18:16 | 51.19112 | 71.73351 | 3962 ft | 172 kts | 230° |
| 2026-04-23 18:16 | 51.18284 | 71.71930 | 3968 ft | 175 kts | 230° |
| 2026-04-23 18:17 | 51.16634 | 71.69140 | 4041 ft | 169 kts | 228° |
| 2026-04-23 18:17 | 51.15792 | 71.67815 | 4048 ft | 173 kts | 226° |
| 2026-04-23 18:17 | 51.14925 | 71.66467 | 4076 ft | 170 kts | 226° |
| 2026-04-23 18:17 | 51.14080 | 71.65156 | 3994 ft | 172 kts | 227° |
| 2026-04-23 18:18 | 51.13235 | 71.63820 | 3861 ft | 167 kts | 227° |
| 2026-04-23 18:18 | 51.12432 | 71.62549 | 3671 ft | 165 kts | 227° |
| 2026-04-23 18:18 | 51.11599 | 71.61234 | 3467 ft | 168 kts | 227° |
| 2026-04-23 18:18 | 51.10802 | 71.59984 | 3235 ft | 155 kts | 227° |
| 2026-04-23 18:19 | 51.10058 | 71.58826 | 2987 ft | 141 kts | 227° |
| 2026-04-23 18:19 | 51.09386 | 71.57783 | 2778 ft | 130 kts | 227° |
| 2026-04-23 18:19 | 51.08756 | 71.56784 | 2633 ft | 125 kts | 227° |
| 2026-04-23 18:19 | 51.08130 | 71.55796 | 2531 ft | 130 kts | 227° |
| 2026-04-23 18:20 | 51.07485 | 71.54781 | 2355 ft | 131 kts | 226° |
| 2026-04-23 18:20 | 51.06833 | 71.53760 | 2167 ft | 129 kts | 226° |
| 2026-04-23 18:20 | 51.06197 | 71.52767 | 1996 ft | 130 kts | 226° |
| 2026-04-23 18:20 | 51.05542 | 71.51743 | 1817 ft | 131 kts | 226° |
| 2026-04-23 18:21 | 51.04900 | 71.50739 | 1642 ft | 131 kts | 226° |
| 2026-04-23 18:21 | 51.04242 | 71.49718 | 1459 ft | 131 kts | 225° |
| 2026-04-23 18:21 | 51.03601 | 71.48717 | 1283 ft | 129 kts | 225° |
| 2026-04-23 18:21 | 51.02966 | 71.47717 | 1180 ft | 122 kts | 225° |
| 2026-04-23 18:22 | 51.02513 | 71.47016 | 1179 ft | 54 kts | 225° |
| 2026-04-23 18:22 | 51.02288 | 71.46663 | 1178 ft | 26 kts | 225° |
| 2026-04-23 18:22 | 51.02199 | 71.46526 | 1178 ft | 23 kts | 225° |
| 2026-04-23 18:22 | 51.02125 | 71.46413 | 1178 ft | 26 kts | 225° |
| 2026-04-23 18:23 | 51.01994 | 71.46207 | 1179 ft | 26 kts | 225° |
| 2026-04-23 18:23 | 51.01725 | 71.45786 | 1179 ft | 27 kts | 225° |
| 2026-04-23 18:24 | 51.01754 | 71.45561 | 1178 ft | 12 kts | 317° |
| 2026-04-23 18:24 | 51.01831 | 71.45503 | 1178 ft | 12 kts | 19° |
| 2026-04-23 18:24 | 51.01906 | 71.45609 | 1179 ft | 15 kts | 45° |
| 2026-04-23 18:25 | 51.02086 | 71.45890 | 1178 ft | 20 kts | 45° |
| 2026-04-23 18:25 | 51.02143 | 71.45980 | 1178 ft | 0 kts | 45° |
| 2026-04-23 18:26 | 51.02144 | 71.45981 | 1178 ft | 1 kts | 45° |
| 2026-04-23 18:26 | 51.02197 | 71.46064 | 1179 ft | 16 kts | 45° |
| 2026-04-23 18:26 | 51.02286 | 71.46201 | 1178 ft | 19 kts | 45° |
| 2026-04-23 18:26 | 51.02329 | 71.46248 | 1179 ft | 5 kts | 11° |
| 2026-04-23 18:27 | 51.02365 | 71.46223 | 1178 ft | 6 kts | 313° |
| 2026-04-23 18:27 | 51.02432 | 71.46114 | 1179 ft | 18 kts | 315° |
| 2026-04-23 18:27 | 51.02503 | 71.45997 | 1179 ft | 12 kts | 315° |
| 2026-04-23 18:27 | 51.02521 | 71.45968 | 1179 ft | 0 kts | 315° |
| 2026-04-23 18:30 | 51.02514 | 71.45978 | 1179 ft | 2 kts | 324° |
| 2026-04-23 18:30 | 51.02502 | 71.45989 | 1179 ft | 2 kts | 341° |
| 2026-04-23 18:30 | 51.02487 | 71.45995 | 1179 ft | 2 kts | 355° |
| 2026-04-23 18:31 | 51.02472 | 71.45995 | 1179 ft | 2 kts | 10° |
| 2026-04-23 18:31 | 51.02458 | 71.45988 | 1179 ft | 2 kts | 24° |
| 2026-04-23 18:31 | 51.02445 | 71.45977 | 1179 ft | 2 kts | 39° |
| 2026-04-23 18:31 | 51.02435 | 71.45963 | 1179 ft | 2 kts | 47° |
| 2026-04-23 18:32 | 51.02430 | 71.45953 | 1179 ft | 0 kts | 45° |
| 2026-04-23 18:34 | 51.02430 | 71.45954 | 1179 ft | 0 kts | 45° |